createdAt,value
2018-03-04T00:00:48.503Z,81.60
2018-03-04T00:03:16.844Z,81.60
2018-03-04T00:05:45.197Z,81.70
2018-03-04T00:08:13.556Z,81.70
2018-03-04T00:10:41.872Z,81.60
2018-03-04T00:13:10.338Z,81.50
2018-03-04T00:15:38.638Z,81.60
2018-03-04T00:18:06.970Z,81.50
2018-03-04T00:20:35.299Z,81.40
2018-03-04T00:23:03.608Z,81.20
2018-03-04T00:25:31.923Z,81.10
2018-03-04T00:28:00.247Z,81.00
2018-03-04T00:30:28.581Z,81.10
2018-03-04T00:32:56.923Z,81.00
2018-03-04T00:35:25.364Z,80.90
2018-03-04T00:37:53.667Z,81.00
2018-03-04T00:40:22.078Z,80.90
2018-03-04T00:42:50.408Z,80.90
2018-03-04T00:45:18.767Z,80.70
2018-03-04T00:47:47.113Z,80.90
2018-03-04T00:50:15.460Z,80.90
2018-03-04T00:52:43.784Z,81.10
2018-03-04T00:55:12.880Z,81.50
2018-03-04T00:57:42.679Z,81.60
2018-03-04T01:00:11.139Z,81.60
2018-03-04T01:02:39.451Z,81.90
2018-03-04T01:05:08.586Z,82.00
2018-03-04T01:07:36.923Z,82.10
2018-03-04T01:10:05.255Z,82.30
2018-03-04T01:12:33.593Z,82.40
2018-03-04T01:15:02.696Z,82.00
2018-03-04T01:17:31.777Z,82.90
2018-03-04T01:20:00.118Z,82.70
2018-03-04T01:22:28.670Z,83.00
2018-03-04T01:24:57.811Z,83.30
2018-03-04T01:27:26.143Z,83.30
2018-03-04T01:29:54.469Z,83.50
2018-03-04T01:32:22.984Z,83.50
2018-03-04T01:34:51.303Z,83.40
2018-03-04T01:37:20.375Z,83.30
2018-03-04T01:39:48.753Z,83.20
2018-03-04T01:42:17.073Z,83.00
2018-03-04T01:44:46.280Z,83.30
2018-03-04T01:47:14.579Z,82.50
2018-03-04T01:49:42.901Z,82.30
2018-03-04T01:52:11.215Z,82.20
2018-03-04T01:54:40.329Z,81.80
2018-03-04T01:57:08.658Z,81.80
2018-03-04T01:59:36.983Z,81.60
2018-03-04T02:02:05.327Z,81.60
2018-03-04T02:04:33.637Z,81.30
2018-03-04T02:07:01.997Z,81.20
2018-03-04T02:09:31.117Z,81.70
2018-03-04T02:12:00.191Z,81.90
2018-03-04T02:14:28.495Z,81.90
2018-03-04T02:16:57.574Z,82.40
2018-03-04T02:19:26.647Z,83.40
2018-03-04T02:21:55.245Z,82.70
2018-03-04T02:24:23.547Z,83.70
2018-03-04T02:26:52.655Z,83.90
2018-03-04T02:29:20.987Z,83.20
2018-03-04T02:31:49.308Z,83.20
2018-03-04T02:34:18.878Z,83.00
2018-03-04T02:36:47.206Z,83.00
2018-03-04T02:39:16.294Z,83.00
2018-03-04T02:41:45.813Z,82.80
2018-03-04T02:44:14.889Z,82.70
2018-03-04T02:46:43.199Z,82.60
2018-03-04T02:49:11.529Z,82.50
2018-03-04T02:51:39.852Z,82.30
2018-03-04T02:54:08.927Z,82.30
2018-03-04T02:56:37.251Z,82.30
2018-03-04T02:59:05.589Z,82.30
2018-03-04T03:01:34.696Z,82.20
2018-03-04T03:04:03.932Z,82.00
2018-03-04T03:06:32.236Z,81.90
2018-03-04T03:09:00.589Z,81.80
2018-03-04T03:11:28.899Z,81.90
2018-03-04T03:13:58.285Z,82.00
2018-03-04T03:16:26.713Z,81.90
2018-03-04T03:18:55.792Z,82.10
2018-03-04T03:21:24.375Z,82.00
2018-03-04T03:23:52.683Z,82.20
2018-03-04T03:26:21.015Z,82.10
2018-03-04T03:28:49.328Z,82.00
2018-03-04T03:31:17.666Z,81.80
2018-03-04T03:33:46.001Z,81.70
2018-03-04T03:36:14.339Z,81.70
2018-03-04T03:38:42.655Z,81.90
2018-03-04T03:41:11.001Z,82.00
2018-03-04T03:43:39.437Z,82.60
2018-03-04T03:46:09.365Z,83.60
2018-03-04T03:48:38.449Z,84.20
2018-03-04T03:51:07.561Z,84.50
2018-03-04T03:53:36.669Z,84.80
2018-03-04T03:56:04.984Z,84.70
2018-03-04T03:58:33.318Z,85.40
2018-03-04T04:01:01.647Z,86.00
2018-03-04T04:03:29.982Z,86.20
2018-03-04T04:05:59.063Z,86.50
2018-03-04T04:08:28.183Z,86.50
2018-03-04T04:10:56.501Z,86.30
2018-03-04T04:13:24.799Z,86.60
2018-03-04T04:15:53.132Z,86.80
2018-03-04T04:18:21.461Z,87.00
2018-03-04T04:20:49.785Z,87.00
2018-03-04T04:23:18.106Z,87.20
2018-03-04T04:25:46.458Z,87.40
2018-03-04T04:28:14.775Z,87.40
2018-03-04T04:30:43.099Z,87.40
2018-03-04T04:33:12.178Z,87.70
2018-03-04T04:35:40.493Z,87.70
2018-03-04T04:38:08.809Z,87.80
2018-03-04T04:40:37.154Z,87.90
2018-03-04T04:43:05.477Z,87.80
2018-03-04T04:45:33.815Z,87.70
2018-03-04T04:48:02.197Z,87.30
2018-03-04T04:50:30.537Z,87.50
2018-03-04T04:52:58.867Z,87.30
2018-03-04T04:55:27.197Z,87.10
2018-03-04T04:57:55.601Z,87.00
2018-03-04T05:00:24.700Z,87.60
2018-03-04T05:02:53.774Z,87.40
2018-03-04T05:05:22.119Z,87.40
2018-03-04T05:07:50.562Z,87.40
2018-03-04T05:10:20.448Z,88.60
2018-03-04T05:12:48.920Z,88.60
2018-03-04T05:15:17.281Z,89.10
2018-03-04T05:17:45.601Z,89.30
2018-03-04T05:20:13.909Z,89.00
2018-03-04T05:22:43.055Z,88.70
2018-03-04T05:25:11.406Z,88.70
2018-03-04T05:27:39.700Z,88.80
2018-03-04T05:30:08.043Z,89.20
2018-03-04T05:32:37.130Z,89.40
2018-03-04T05:35:05.461Z,88.90
2018-03-04T05:37:33.774Z,88.80
2018-03-04T05:40:02.105Z,88.60
2018-03-04T05:42:30.446Z,88.50
2018-03-04T05:44:58.919Z,88.20
2018-03-04T05:47:27.475Z,87.80
2018-03-04T05:49:55.784Z,87.10
2018-03-04T05:52:24.109Z,86.30
2018-03-04T05:54:52.457Z,85.90
2018-03-04T05:57:20.799Z,86.00
2018-03-04T05:59:49.146Z,86.00
2018-03-04T06:02:17.508Z,86.00
2018-03-04T06:04:46.610Z,86.50
2018-03-04T06:07:14.920Z,86.50
2018-03-04T06:09:43.246Z,87.00
2018-03-04T06:12:11.575Z,87.50
2018-03-04T06:14:39.929Z,88.00
2018-03-04T06:17:08.258Z,88.50
2018-03-04T06:19:36.600Z,89.00
2018-03-04T06:22:05.718Z,89.20
2018-03-04T06:24:34.106Z,89.20
2018-03-04T06:27:02.400Z,89.30
2018-03-04T06:29:30.751Z,89.90
2018-03-04T06:31:59.844Z,90.10
2018-03-04T06:34:28.208Z,90.10
2018-03-04T06:36:57.318Z,91.10
2018-03-04T06:39:26.509Z,91.60
2018-03-04T06:41:54.863Z,91.20
2018-03-04T06:44:27.196Z,91.70
2018-03-04T06:46:55.530Z,91.30
2018-03-04T06:49:23.857Z,91.20
2018-03-04T06:51:52.223Z,91.00
2018-03-04T06:54:21.344Z,90.60
2018-03-04T06:56:49.672Z,90.60
2018-03-04T06:59:18.781Z,90.10
2018-03-04T07:01:47.114Z,90.10
2018-03-04T07:04:15.472Z,89.90
2018-03-04T07:06:44.534Z,89.70
2018-03-04T07:09:12.905Z,89.70
2018-03-04T07:11:41.291Z,89.20
2018-03-04T07:14:09.642Z,88.90
2018-03-04T07:16:38.035Z,88.50
2018-03-04T07:19:06.347Z,88.40
2018-03-04T07:21:34.656Z,88.50
2018-03-04T07:24:03.732Z,87.30
2018-03-04T07:26:32.892Z,87.30
2018-03-04T07:29:01.207Z,87.40
2018-03-04T07:31:29.576Z,86.80
2018-03-04T07:33:57.906Z,86.80
2018-03-04T07:36:26.307Z,86.50
2018-03-04T07:38:54.632Z,86.10
2018-03-04T07:41:22.948Z,86.20
2018-03-04T07:43:52.030Z,85.30
2018-03-04T07:46:21.102Z,84.40
2018-03-04T07:48:49.418Z,84.40
2018-03-04T07:51:18.511Z,83.10
2018-03-04T07:53:47.588Z,82.90
2018-03-04T07:56:15.914Z,82.90
2018-03-04T07:58:45.064Z,82.80
2018-03-04T08:01:13.507Z,82.60
2018-03-04T08:03:43.477Z,82.70
2018-03-04T08:06:11.808Z,82.10
2018-03-04T08:08:40.266Z,81.90
2018-03-04T08:11:09.341Z,80.60
2018-03-04T08:13:37.677Z,80.60
2018-03-04T08:16:06.007Z,80.30
2018-03-04T08:18:34.368Z,79.40
2018-03-04T08:21:02.662Z,78.80
2018-03-04T08:23:31.749Z,77.60
2018-03-04T08:26:17.772Z,77.60
2018-03-04T08:28:46.070Z,77.20
2018-03-04T08:31:14.402Z,76.60
2018-03-04T08:33:42.739Z,76.20
2018-03-04T08:36:11.167Z,75.90
2018-03-04T08:38:40.296Z,75.70
2018-03-04T08:41:08.617Z,75.10
2018-03-04T08:43:36.918Z,74.70
2018-03-04T08:46:05.232Z,74.20
2018-03-04T08:48:33.539Z,73.60
2018-03-04T08:51:03.158Z,73.00
2018-03-04T08:53:31.467Z,72.30
2018-03-04T08:56:00.820Z,71.70
2018-03-04T08:58:29.219Z,70.90
2018-03-04T09:00:57.532Z,70.20
2018-03-04T09:03:25.913Z,70.00
2018-03-04T09:05:54.229Z,68.60
2018-03-04T09:08:23.310Z,66.70
2018-03-04T09:10:52.434Z,65.70
2018-03-04T09:13:21.522Z,64.80
2018-03-04T09:15:50.650Z,63.80
2018-03-04T09:18:19.154Z,63.80
2018-03-04T09:20:47.516Z,63.30
2018-03-04T09:23:15.829Z,62.90
2018-03-04T09:25:44.160Z,62.70
2018-03-04T09:28:13.358Z,64.50
2018-03-04T09:30:42.446Z,65.00
2018-03-04T09:33:10.773Z,64.90
2018-03-04T09:35:39.092Z,65.50
2018-03-04T09:38:08.167Z,66.60
2018-03-04T09:40:36.505Z,67.40
2018-03-04T09:43:04.830Z,66.90
2018-03-04T09:45:33.197Z,67.50
2018-03-04T09:48:01.536Z,67.70
2018-03-04T09:50:30.689Z,68.60
2018-03-04T09:52:59.177Z,68.60
2018-03-04T09:55:28.300Z,68.90
2018-03-04T09:57:56.636Z,69.10
2018-03-04T10:00:25.760Z,70.00
2018-03-04T10:02:54.055Z,69.40
2018-03-04T10:05:23.113Z,69.60
2018-03-04T10:08:00.894Z,69.70
2018-03-04T10:10:29.376Z,69.60
2018-03-04T10:12:57.684Z,69.60
2018-03-04T10:15:26.002Z,69.50
2018-03-04T10:17:55.151Z,69.30
2018-03-04T10:20:23.444Z,69.30
2018-03-04T10:22:51.764Z,69.20
2018-03-04T10:25:20.859Z,68.00
2018-03-04T10:27:50.701Z,67.60
2018-03-04T10:30:19.040Z,67.60
2018-03-04T10:32:47.354Z,67.50
2018-03-04T10:35:16.408Z,67.50
2018-03-04T10:37:44.725Z,67.40
2018-03-04T10:40:13.060Z,67.50
2018-03-04T10:42:41.372Z,67.50
2018-03-04T10:45:10.454Z,67.20
2018-03-04T10:47:38.770Z,67.20
2018-03-04T10:50:07.130Z,67.00
2018-03-04T10:52:35.576Z,66.90
2018-03-04T10:55:04.290Z,66.20
2018-03-04T10:57:32.668Z,65.30
2018-03-04T11:00:01.022Z,65.10
2018-03-04T11:02:34.986Z,65.00
2018-03-04T11:05:03.314Z,64.90
2018-03-04T11:07:31.622Z,64.60
2018-03-04T11:10:00.032Z,64.20
2018-03-04T11:12:28.363Z,64.80
2018-03-04T11:14:56.665Z,63.00
2018-03-04T11:17:25.034Z,62.20
2018-03-04T11:19:53.483Z,61.60
2018-03-04T11:22:21.803Z,60.10
2018-03-04T11:24:50.118Z,59.40
2018-03-04T11:27:18.427Z,58.70
2018-03-04T11:29:46.790Z,58.10
2018-03-04T11:32:15.112Z,57.40
2018-03-04T11:34:43.444Z,57.00
2018-03-04T11:37:11.794Z,56.40
2018-03-04T11:39:40.172Z,56.00
2018-03-04T11:42:08.518Z,55.50
2018-03-04T11:44:37.613Z,54.90
2018-03-04T11:47:07.339Z,53.80
2018-03-04T11:49:35.664Z,54.40
2018-03-04T11:52:03.996Z,53.20
2018-03-04T11:54:32.325Z,52.40
2018-03-04T11:57:00.652Z,51.60
2018-03-04T11:59:29.766Z,50.90
2018-03-04T12:01:58.210Z,50.90
2018-03-04T12:04:26.543Z,49.90
2018-03-04T12:06:54.883Z,48.30
2018-03-04T12:09:23.223Z,47.30
2018-03-04T12:11:51.580Z,46.50
2018-03-04T12:14:19.900Z,45.90
2018-03-04T12:16:48.222Z,45.20
2018-03-04T12:19:17.324Z,44.80
2018-03-04T12:21:46.399Z,44.30
2018-03-04T12:24:15.685Z,44.50
2018-03-04T12:26:43.990Z,44.40
2018-03-04T12:29:13.085Z,43.40
2018-03-04T12:31:43.008Z,42.90
2018-03-04T12:34:12.144Z,42.80
2018-03-04T12:36:40.499Z,42.70
2018-03-04T12:39:08.825Z,42.50
2018-03-04T12:41:37.165Z,42.20
2018-03-04T12:44:06.261Z,41.30
2018-03-04T12:46:35.364Z,40.70
2018-03-04T12:49:03.715Z,40.70
2018-03-04T12:51:33.588Z,39.40
2018-03-04T12:54:01.911Z,39.90
2018-03-04T12:56:31.005Z,39.20
2018-03-04T12:58:59.322Z,38.30
2018-03-04T13:01:28.405Z,37.50
2018-03-04T13:03:57.589Z,37.20
2018-03-04T13:06:25.931Z,37.00
2018-03-04T13:08:54.235Z,36.90
2018-03-04T13:11:22.539Z,36.80
2018-03-04T13:13:51.632Z,37.40
2018-03-04T13:16:21.597Z,37.80
2018-03-04T13:18:49.936Z,37.80
2018-03-04T13:21:18.263Z,38.20
2018-03-04T13:23:46.583Z,38.10
2018-03-04T13:26:14.899Z,36.80
2018-03-04T13:28:44.007Z,35.80
2018-03-04T13:31:12.415Z,35.60
2018-03-04T13:33:41.379Z,35.20
2018-03-04T13:36:09.714Z,34.70
2018-03-04T13:38:38.041Z,34.40
2018-03-04T13:41:07.140Z,34.30
2018-03-04T13:43:36.226Z,34.40
2018-03-04T13:46:04.590Z,34.40
2018-03-04T13:48:32.919Z,34.50
2018-03-04T13:51:01.245Z,34.60
2018-03-04T13:53:29.567Z,34.70
2018-03-04T13:55:58.665Z,35.00
2018-03-04T13:58:27.765Z,35.00
2018-03-04T14:00:56.852Z,35.00
2018-03-04T14:03:25.259Z,34.90
2018-03-04T14:05:53.589Z,35.00
2018-03-04T14:08:21.945Z,35.00
2018-03-04T14:10:50.336Z,34.90
2018-03-04T14:13:18.661Z,34.90
2018-03-04T14:15:47.720Z,35.30
2018-03-04T14:18:16.046Z,35.30
2018-03-04T14:20:45.137Z,36.10
2018-03-04T14:23:14.275Z,36.60
2018-03-04T14:25:42.761Z,36.50
2018-03-04T14:28:11.105Z,37.00
2018-03-04T14:30:39.433Z,37.20
2018-03-04T14:33:07.957Z,37.30
2018-03-04T14:35:36.282Z,37.20
2018-03-04T14:38:04.597Z,37.90
2018-03-04T14:40:32.921Z,37.30
2018-03-04T14:43:02.010Z,37.80
2018-03-04T14:45:30.336Z,37.70
2018-03-04T14:48:04.979Z,38.00
2018-03-04T14:50:34.166Z,38.40
2018-03-04T14:53:05.661Z,38.70
2018-03-04T14:55:34.060Z,38.90
2018-03-04T14:58:05.205Z,40.10
2018-03-04T15:00:34.837Z,40.00
2018-03-04T15:03:03.144Z,39.90
2018-03-04T15:05:31.559Z,40.50
2018-03-04T15:07:59.911Z,41.00
2018-03-04T15:10:28.855Z,41.40
2018-03-04T15:12:57.213Z,41.60
2018-03-04T15:15:25.636Z,41.90
2018-03-04T15:17:53.961Z,42.20
2018-03-04T15:20:22.265Z,42.30
2018-03-04T15:22:50.588Z,42.60
2018-03-04T15:25:18.894Z,43.00
2018-03-04T15:27:47.234Z,43.30
2018-03-04T15:30:15.579Z,43.60
2018-03-04T15:32:43.883Z,43.70
2018-03-04T15:35:13.009Z,44.30
2018-03-04T15:37:41.331Z,44.30
2018-03-04T15:40:09.643Z,44.60
2018-03-04T15:42:38.726Z,45.40
2018-03-04T15:45:11.166Z,45.40
2018-03-04T15:47:42.399Z,45.80
2018-03-04T15:50:13.795Z,46.20
2018-03-04T15:52:45.862Z,46.60
2018-03-04T15:55:21.099Z,46.90
2018-03-04T15:57:51.207Z,47.70
2018-03-04T16:00:23.074Z,47.70
2018-03-04T16:02:55.504Z,48.50
2018-03-04T16:05:25.145Z,48.50
2018-03-04T16:07:55.115Z,49.40
2018-03-04T16:10:25.703Z,49.40
2018-03-04T16:12:55.365Z,49.80
2018-03-04T16:15:28.337Z,50.70
2018-03-04T16:17:57.005Z,50.70
2018-03-04T16:20:26.751Z,51.20
2018-03-04T16:22:59.120Z,52.30
2018-03-04T16:25:33.427Z,52.90
2018-03-04T16:28:04.865Z,52.70
2018-03-04T16:30:34.921Z,53.60
2018-03-04T16:33:04.637Z,54.70
2018-03-04T16:35:33.727Z,54.50
2018-03-04T16:38:02.079Z,54.30
2018-03-04T16:40:30.556Z,55.00
2018-03-04T16:42:58.864Z,55.50
2018-03-04T16:45:29.557Z,55.90
2018-03-04T16:47:58.323Z,56.20
2018-03-04T16:50:26.671Z,56.60
2018-03-04T16:52:55.443Z,57.20
2018-03-04T16:55:25.950Z,57.90
2018-03-04T16:57:57.545Z,57.80
2018-03-04T17:00:28.280Z,58.70
2018-03-04T17:02:56.622Z,58.60
2018-03-04T17:05:25.003Z,58.90
2018-03-04T17:07:54.103Z,59.60
2018-03-04T17:10:22.488Z,59.60
2018-03-04T17:12:51.687Z,60.00
2018-03-04T17:15:20.728Z,60.20
2018-03-04T17:17:49.066Z,60.60
2018-03-04T17:20:17.384Z,61.00
2018-03-04T17:22:45.708Z,61.60
2018-03-04T17:25:14.495Z,62.90
2018-03-04T17:27:42.867Z,63.00
2018-03-04T17:30:12.937Z,63.80
2018-03-04T17:32:42.698Z,63.80
2018-03-04T17:35:13.235Z,64.60
2018-03-04T17:37:41.817Z,64.50
2018-03-04T17:40:11.879Z,65.40
2018-03-04T17:42:40.260Z,66.50
2018-03-04T17:45:09.479Z,65.70
2018-03-04T17:47:41.986Z,67.80
2018-03-04T17:50:11.116Z,68.20
2018-03-04T17:52:39.494Z,68.20
2018-03-04T17:55:07.798Z,68.30
2018-03-04T17:57:36.103Z,68.70
2018-03-04T18:00:04.427Z,68.80
2018-03-04T18:02:33.497Z,69.10
2018-03-04T18:05:01.836Z,69.90
2018-03-04T18:07:30.143Z,69.30
2018-03-04T18:09:58.461Z,69.60
2018-03-04T18:12:26.777Z,69.80
2018-03-04T18:14:55.093Z,70.00
2018-03-04T18:17:23.413Z,70.50
2018-03-04T18:19:52.504Z,71.20
2018-03-04T18:22:21.602Z,72.00
2018-03-04T18:24:49.910Z,72.00
2018-03-04T18:27:18.253Z,72.10
2018-03-04T18:29:47.338Z,72.60
2018-03-04T18:32:15.885Z,72.60
2018-03-04T18:34:44.211Z,72.50
2018-03-04T18:37:12.499Z,72.50
2018-03-04T18:39:41.583Z,72.70
2018-03-04T18:42:09.907Z,72.70
2018-03-04T18:44:38.229Z,72.70
2018-03-04T18:47:06.536Z,72.90
2018-03-04T18:49:35.689Z,73.80
2018-03-04T18:52:04.026Z,73.80
2018-03-04T18:54:33.106Z,75.10
2018-03-04T18:57:01.489Z,75.20
2018-03-04T18:59:30.298Z,75.70
2018-03-04T19:01:58.623Z,76.10
2018-03-04T19:04:26.927Z,76.70
2018-03-04T19:06:55.248Z,77.20
2018-03-04T19:09:24.326Z,78.90
2018-03-04T19:11:52.643Z,78.60
2018-03-04T19:14:21.750Z,81.10
2018-03-04T19:16:50.080Z,80.40
2018-03-04T19:19:18.379Z,81.00
2018-03-04T19:21:48.197Z,82.90
2018-03-04T19:24:17.379Z,86.20
2018-03-04T19:26:45.741Z,86.20
2018-03-04T19:29:14.070Z,86.50
2018-03-04T19:31:43.148Z,87.10
2018-03-04T19:34:12.445Z,87.30
2018-03-04T19:36:42.270Z,87.80
2018-03-04T19:39:10.582Z,87.70
2018-03-04T19:41:39.721Z,88.30
2018-03-04T19:44:12.039Z,89.00
2018-03-04T19:46:45.189Z,89.70
2018-03-04T19:49:18.129Z,90.10
2018-03-04T19:51:46.944Z,90.40
2018-03-04T19:54:18.868Z,91.00
2018-03-04T19:56:47.817Z,91.00
2018-03-04T19:59:17.961Z,91.60
2018-03-04T20:01:48.913Z,91.80
2018-03-04T20:04:19.368Z,91.80
2018-03-04T20:06:48.908Z,92.10
2018-03-04T20:09:19.018Z,92.50
2018-03-04T20:11:48.745Z,92.90
2018-03-04T20:14:18.953Z,93.10
2018-03-04T20:16:48.963Z,93.40
2018-03-04T20:19:20.138Z,93.80
2018-03-04T20:21:48.525Z,93.90
2018-03-04T20:24:16.872Z,94.40
2018-03-04T20:26:45.207Z,94.80
2018-03-04T20:29:13.511Z,95.20
2018-03-04T20:31:42.632Z,95.80
2018-03-04T20:34:11.584Z,95.80
2018-03-04T20:36:39.885Z,96.20
2018-03-04T20:39:08.963Z,96.80
2018-03-04T20:41:37.310Z,96.80
2018-03-04T20:44:05.615Z,97.40
2018-03-04T20:46:33.934Z,98.00
2018-03-04T20:49:03.893Z,98.60
2018-03-04T20:51:32.187Z,98.60
2018-03-04T20:54:00.508Z,99.10
2018-03-04T20:56:29.583Z,99.90
2018-03-04T20:58:57.919Z,99.90
2018-03-04T21:01:26.236Z,99.90
2018-03-04T21:03:54.532Z,99.90
2018-03-04T21:06:22.836Z,99.90
2018-03-04T21:08:51.907Z,99.90
2018-03-04T21:11:20.205Z,99.90
2018-03-04T21:13:49.349Z,99.90
2018-03-04T21:16:18.374Z,99.90
2018-03-04T21:18:46.694Z,99.90
2018-03-04T21:21:15.068Z,99.90
2018-03-04T21:26:18.533Z,99.90
2018-03-04T21:28:46.843Z,99.90
2018-03-04T21:31:15.139Z,99.90
2018-03-04T21:33:43.468Z,99.90
2018-03-04T21:36:11.779Z,99.90
2018-03-04T21:38:40.095Z,99.90
2018-03-04T21:41:09.309Z,99.90
2018-03-04T21:43:37.710Z,99.90
2018-03-04T21:46:06.098Z,99.90
2018-03-04T21:48:34.394Z,99.90
2018-03-04T21:51:02.714Z,99.90
2018-03-04T21:53:31.796Z,99.90
2018-03-04T21:56:00.148Z,99.90
2018-03-04T21:58:28.514Z,99.90
2018-03-04T22:00:56.816Z,99.90
2018-03-04T22:03:25.141Z,99.90
2018-03-04T22:05:54.260Z,99.90
2018-03-04T22:08:22.593Z,99.90
2018-03-04T22:10:51.010Z,99.90
2018-03-04T22:13:20.084Z,99.90
2018-03-04T22:15:48.404Z,99.90
2018-03-04T22:18:16.736Z,99.90
2018-03-04T22:20:45.848Z,99.90
2018-03-04T22:23:14.946Z,99.90
2018-03-04T22:25:43.300Z,99.90
2018-03-04T22:28:11.618Z,99.90
2018-03-04T22:30:40.689Z,99.90
2018-03-04T22:33:09.130Z,99.90
2018-03-04T22:35:37.458Z,99.90
2018-03-04T22:38:05.795Z,99.90
2018-03-04T22:40:34.100Z,99.90
2018-03-04T22:43:02.419Z,99.90
2018-03-04T22:45:31.502Z,99.90
2018-03-04T22:48:00.580Z,99.90
2018-03-04T22:50:28.890Z,99.90
2018-03-04T22:52:57.982Z,99.90
2018-03-04T22:55:26.289Z,99.90
2018-03-04T22:57:55.395Z,99.90
2018-03-04T23:00:23.730Z,99.90
2018-03-04T23:02:52.089Z,99.90
2018-03-04T23:05:21.126Z,99.90
2018-03-04T23:07:49.456Z,99.90
2018-03-04T23:10:17.775Z,99.90
2018-03-04T23:12:46.100Z,99.90
2018-03-04T23:15:14.426Z,99.90
2018-03-04T23:17:43.069Z,99.90
2018-03-04T23:20:11.400Z,99.90
2018-03-04T23:22:39.720Z,99.90
2018-03-04T23:25:08.821Z,99.90
2018-03-04T23:27:37.923Z,99.90
2018-03-04T23:30:06.250Z,99.90
2018-03-04T23:32:34.554Z,99.90
2018-03-04T23:35:02.868Z,99.90
2018-03-04T23:37:31.191Z,99.90
2018-03-04T23:39:59.635Z,99.90
2018-03-04T23:42:28.653Z,99.90
2018-03-04T23:44:57.005Z,99.90
2018-03-04T23:47:26.077Z,99.90
2018-03-04T23:49:54.393Z,99.90
2018-03-04T23:52:22.730Z,99.90
2018-03-04T23:54:51.014Z,99.90
2018-03-04T23:57:19.355Z,99.90
2018-03-04T23:59:47.675Z,99.90
